Desert Aire, WA

4:49 AM PST on January 29, 2015 (GMT -0800)
APRSWXNET Desert Aire WA US | Change Station
CLOSE
Current Station
Personal Weather Station
Location: Mattawa, WA
Elevation: 538 ft
Nearby Weather Stations

Elev 538 ft 46.68 °N, 119.92 °W | Updated 38 minutes ago

Overcast
Overcast
37 °F
Feels Like 37 °F
N
3
Wind Variable Wind from WNW
Gusts 5.0 mph

Today
High -- | Low -- °F
--% Chance of Precip.
Yesterday
High -- | Low -- °F
Precip. -- in
7:27 AM 4:58 PM
Waxing Gibbous, 74% visible
Pressure 30.46 in
Visibility 2.2 miles
Clouds Overcast 200 ft
Windchill 37 °F
Dew Point 34 °F
Humidity 90%
Rainfall 0.00 in
Snow Depth Not available.
UV 0 out of 12
Pollen 4.70 out of 12
Air Quality Not available.
Flu Activity Not available.
SPECI K1YT 291201Z AUTO 25003KT 2 1/4SM BR OVC002 00/00 A3046 RMK AO2 VIS 2 1/4V3

More Conditions Fewer Conditions

Pressure 30.46 in
Visibility 2.2 miles
Clouds Overcast 200 ft
Windchill 37 °F
Dew Point 34 °F
Humidity 90%
Rainfall 0.00 in
Snow Depth Not available.
UV 0 out of 12
Pollen 4.70 out of 12
Air Quality Not available.
Flu Activity Not available.
SPECI K1YT 291201Z AUTO 25003KT 2 1/4SM BR OVC002 00/00 A3046 RMK AO2 VIS 2 1/4V3

More Conditions Fewer Conditions

10-Day Weather Forecast

Almanac

Astronomy

Jan. 29, 2015 Rise Set
Actual Time
Civil Twilight
Nautical Twilight
Astronomical Twilight
Moon
Length of Visible Light
Length of Day
Tomorrow will be .
, % of the Moon is Illuminated

Today's Extremes

State Highs State Lows

Community

WunderPhotos

Upload Photos

1,791,420 photos uploaded!

WunderBlogs® & News

Nearby

Air Quality

  Air Quality AQ Index Pollutant
Not available.

Snow Depth

Station Depth Elevation

Earthquake Activity

City Distance Mag. Time & Date
Minimum magnitude displayed is 2.5.

Coastal Water Temperatures

Place Temperature

Nearby Weather Stations